Time;durP1;ratioP1;P1;durP2;ratioP2;P2;SDS_P1;SDS_P2;PMS_P1;PMS_P2;Temp;Humidity;BMP_temperature;BMP_pressure;BME280_temperature;BME280_humidity;BME280_pressure;Samples;Min_cycle;Max_cycle;Signal;HPM_P1;HPM_P2
2022/01/03 00:00:12;;;;;;;4.50;1.60;;;;;;;10.77;56.30;95865.22;4844066;29;20056;-45
2022/01/03 00:02:40;;;;;;;3.60;1.60;;;;;;;10.56;57.24;95854.44;4825089;29;20366;-42
2022/01/03 00:05:07;;;;;;;4.50;1.73;;;;;;;10.72;56.72;95851.88;4824996;29;20057;-40
2022/01/03 00:07:37;;;;;;;3.60;1.60;;;;;;;10.67;56.88;95857.53;4824764;29;20050;-43
2022/01/03 00:10:05;;;;;;;5.63;2.05;;;;;;;10.59;57.42;95847.56;4840406;29;20546;-46
2022/01/03 00:12:33;;;;;;;5.80;1.77;;;;;;;10.63;57.38;95848.50;4842662;29;20046;-43
2022/01/03 00:15:00;;;;;;;3.20;1.80;;;;;;;10.61;57.61;95840.72;4843602;29;20062;-43
2022/01/03 00:17:28;;;;;;;4.13;2.00;;;;;;;10.60;58.22;95843.75;4843173;29;20431;-42
2022/01/03 00:19:58;;;;;;;5.22;1.80;;;;;;;10.45;58.95;95828.94;4836900;29;20083;-42
2022/01/03 00:22:31;;;;;;;4.78;1.83;;;;;;;10.47;59.00;95841.00;4824035;29;20057;-45
2022/01/03 00:25:03;;;;;;;5.95;1.98;;;;;;;10.40;59.65;95831.84;4824971;29;20600;-40
2022/01/03 00:28:08;;;;;;;5.13;1.70;;;;;;;10.47;59.21;95830.19;4824545;29;20526;-42
2022/01/03 00:30:39;;;;;;;4.63;1.52;;;;;;;10.50;59.37;95826.81;4829860;29;20058;-42
2022/01/03 00:33:08;;;;;;;4.80;2.00;;;;;;;10.31;60.50;95831.94;4856829;29;20050;-40
2022/01/03 00:35:41;;;;;;;2.95;1.45;;;;;;;10.35;60.24;95822.03;4841989;29;20069;-42
2022/01/03 00:38:11;;;;;;;3.70;1.90;;;;;;;10.42;60.07;95826.91;4839526;29;20054;-45
2022/01/03 00:40:40;;;;;;;2.58;1.70;;;;;;;10.35;60.69;95821.25;4823837;29;20493;-42
2022/01/03 00:43:07;;;;;;;3.58;1.65;;;;;;;10.19;61.68;95813.72;4824619;29;20054;-41
2022/01/03 00:45:34;;;;;;;3.08;1.50;;;;;;;10.26;61.34;95838.34;4824298;29;20092;-43
2022/01/03 00:48:06;;;;;;;3.38;1.80;;;;;;;10.12;61.79;95840.50;4851529;29;20106;-43
2022/01/03 00:50:34;;;;;;;7.60;2.20;;;;;;;10.19;61.80;95834.56;4841454;29;20050;-47
2022/01/03 00:53:00;;;;;;;5.28;1.83;;;;;;;10.17;62.26;95842.22;4839970;29;20050;-41
2022/01/03 00:55:28;;;;;;;6.00;2.38;;;;;;;10.21;62.22;95841.22;4842074;29;20046;-42
2022/01/03 00:58:00;;;;;;;5.28;2.00;;;;;;;10.21;62.26;95838.53;4856987;29;20282;-43
2022/01/03 01:00:31;;;;;;;5.10;1.83;;;;;;;10.14;62.85;95832.06;4837011;29;20097;-43
2022/01/03 01:03:04;;;;;;;7.80;2.10;;;;;;;10.11;63.48;95832.72;4822098;29;20054;-43
2022/01/03 01:05:34;;;;;;;5.13;1.80;;;;;;;10.04;63.93;95827.84;4822779;29;20081;-42
2022/01/03 01:08:01;;;;;;;3.28;1.70;;;;;;;10.11;63.45;95828.13;4823791;29;20078;-42
2022/01/03 01:10:32;;;;;;;3.70;1.77;;;;;;;10.16;63.63;95837.94;4822754;29;20050;-46
2022/01/03 01:12:59;;;;;;;4.90;1.45;;;;;;;10.16;63.64;95832.53;4823391;29;20516;-42
2022/01/03 01:15:30;;;;;;;3.47;1.90;;;;;;;10.09;64.03;95819.53;4822488;29;20066;-40
2022/01/03 01:17:59;;;;;;;5.45;2.00;;;;;;;10.12;63.90;95818.88;4822696;29;20505;-45
2022/01/03 01:20:26;;;;;;;3.53;1.70;;;;;;;10.05;64.40;95810.53;4837789;29;20104;-42
2022/01/03 01:22:55;;;;;;;3.63;1.70;;;;;;;10.02;64.82;95805.78;4836934;29;20046;-44
2022/01/03 01:27:45;;;;;;;3.70;1.67;;;;;;;10.08;64.25;95817.97;4822289;29;20049;-46
2022/01/03 01:28:15;;;;;;;6.75;1.77;;;;;;;10.03;64.60;95810.84;4837503;29;20078;-47
2022/01/03 01:30:43;;;;;;;5.10;1.80;;;;;;;10.08;64.90;95828.78;4822658;29;20081;-42
2022/01/03 01:33:15;;;;;;;4.78;1.55;;;;;;;10.07;64.50;95835.28;4821674;29;20046;-44
2022/01/03 01:36:05;;;;;;;4.75;1.48;;;;;;;10.04;64.96;95817.84;4837345;29;20107;-45
2022/01/03 01:38:36;;;;;;;4.10;1.38;;;;;;;10.07;64.66;95819.06;4837311;29;20079;-43
2022/01/03 01:41:06;;;;;;;2.55;1.30;;;;;;;10.07;64.77;95830.69;4821986;29;20048;-42
2022/01/03 01:43:45;;;;;;;6.43;2.33;;;;;;;10.11;64.47;95835.41;4821497;29;20417;-41
2022/01/03 01:46:18;;;;;;;3.92;1.30;;;;;;;10.09;64.61;95818.75;4822112;29;20509;-45
2022/01/03 01:48:49;;;;;;;3.45;1.38;;;;;;;10.03;64.97;95821.66;4836913;29;20073;-46
2022/01/03 01:51:22;;;;;;;4.03;1.20;;;;;;;9.98;65.35;95838.09;4821804;29;20057;-44
2022/01/03 01:53:53;;;;;;;4.07;1.77;;;;;;;10.19;64.53;95826.44;4820990;29;20046;-43
2022/01/03 01:56:26;;;;;;;4.05;1.30;;;;;;;10.13;65.06;95816.97;4823333;29;20106;-43
2022/01/03 01:58:57;;;;;;;3.00;1.17;;;;;;;10.12;65.25;95815.38;4822076;29;20055;-45
2022/01/03 02:01:42;;;;;;;4.15;1.55;;;;;;;10.11;65.28;95813.78;4821993;29;20493;-41
2022/01/03 02:04:28;;;;;;;5.15;1.42;;;;;;;10.09;65.24;95813.34;4821884;29;20069;-41
2022/01/03 02:07:04;;;;;;;4.05;1.30;;;;;;;10.01;65.82;95807.69;4821976;29;20093;-42
2022/01/03 02:09:52;;;;;;;4.03;1.25;;;;;;;10.13;65.53;95806.94;4822879;29;20086;-43
2022/01/03 02:12:20;;;;;;;3.38;1.40;;;;;;;10.15;65.42;95806.63;4821250;29;20127;-43
2022/01/03 02:14:51;;;;;;;4.25;1.38;;;;;;;10.20;65.18;95801.78;4823043;29;20489;-44
2022/01/03 02:17:17;;;;;;;5.05;1.48;;;;;;;10.12;65.35;95797.25;4836288;29;20469;-47
2022/01/03 02:20:10;;;;;;;5.03;1.05;;;;;;;10.10;65.61;95798.69;4822971;29;20134;-43
2022/01/03 02:22:38;;;;;;;3.20;1.38;;;;;;;10.13;65.67;95800.75;4821444;29;20046;-42
2022/01/03 02:25:12;;;;;;;6.35;1.65;;;;;;;10.17;65.13;95790.84;4836759;29;20046;-47
2022/01/03 02:27:40;;;;;;;12.25;2.72;;;;;;;10.14;65.41;95789.63;4823231;29;20497;-44
2022/01/03 02:30:11;;;;;;;3.70;1.30;;;;;;;10.15;65.12;95795.81;4825026;29;20102;-44
2022/01/03 02:32:39;;;;;;;3.97;1.40;;;;;;;10.16;65.00;95797.38;4839218;29;20046;-44
2022/01/03 02:35:07;;;;;;;4.60;1.13;;;;;;;10.20;64.97;95798.28;4855196;29;20050;-42
2022/01/03 02:37:34;;;;;;;3.90;1.20;;;;;;;10.17;64.99;95799.75;4840147;29;20135;-44
2022/01/03 02:40:03;;;;;;;2.75;1.00;;;;;;;10.07;65.50;95800.97;4836816;29;20539;-43
2022/01/03 02:42:31;;;;;;;2.92;1.23;;;;;;;10.11;65.19;95802.97;4822160;29;20073;-44
2022/01/03 02:45:06;;;;;;;3.50;1.65;;;;;;;10.12;65.53;95789.16;4821536;29;20485;-42
2022/01/03 02:47:33;;;;;;;5.20;1.52;;;;;;;10.11;65.15;95787.56;4821416;29;20066;-43
2022/01/03 02:50:01;;;;;;;5.72;1.40;;;;;;;10.15;65.06;95793.88;4839315;29;20085;-42
2022/01/03 02:52:28;;;;;;;4.80;1.30;;;;;;;10.08;65.12;95785.53;4842428;29;20054;-42
2022/01/03 02:54:56;;;;;;;4.45;1.30;;;;;;;10.15;65.17;95795.81;4821364;29;20399;-43
2022/01/03 02:57:23;;;;;;;4.57;1.45;;;;;;;10.11;65.27;95808.38;4806200;29;20509;-42
2022/01/03 02:59:57;;;;;;;3.70;1.50;;;;;;;10.17;65.12;95812.47;4821143;29;20058;-42
2022/01/03 03:02:26;;;;;;;3.00;1.23;;;;;;;10.14;65.46;95830.16;4820844;29;20513;-42
2022/01/03 03:04:59;;;;;;;4.18;1.50;;;;;;;10.19;65.24;95818.34;4824324;29;20053;-42
2022/01/03 03:07:29;;;;;;;7.45;1.58;;;;;;;10.13;65.73;95828.56;4840502;29;20095;-40
2022/01/03 03:09:58;;;;;;;5.78;1.20;;;;;;;10.17;65.46;95834.91;4820175;29;20062;-41
2022/01/03 03:12:26;;;;;;;3.55;1.13;;;;;;;9.99;66.46;95823.44;4824451;29;20072;-45
2022/01/03 03:14:55;;;;;;;4.10;1.20;;;;;;;10.15;65.65;95803.91;4841245;29;20050;-42
2022/01/03 03:17:22;;;;;;;4.10;1.42;;;;;;;10.09;65.97;95811.44;4843696;29;20534;-45
2022/01/03 03:19:55;;;;;;;4.00;1.30;;;;;;;10.12;65.90;95821.59;4844534;29;20077;-40
2022/01/03 03:22:24;;;;;;;3.15;1.15;;;;;;;10.08;66.23;95817.97;4846590;29;20050;-42
2022/01/03 03:25:00;;;;;;;3.50;1.10;;;;;;;10.00;66.80;95822.31;4824352;29;20101;-43
2022/01/03 03:27:27;;;;;;;3.92;1.40;;;;;;;9.86;67.56;95815.59;4825825;29;20086;-42
2022/01/03 03:30:26;;;;;;;4.30;1.13;;;;;;;10.03;66.91;95808.13;4824568;29;20047;-40
2022/01/03 03:32:56;;;;;;;3.85;1.20;;;;;;;10.06;66.62;95815.59;4824929;29;20046;-40
2022/01/03 03:35:24;;;;;;;6.57;1.17;;;;;;;10.07;66.63;95800.97;4824427;29;20049;-42
2022/01/03 03:37:51;;;;;;;6.57;1.60;;;;;;;10.07;66.57;95809.06;4833120;29;20054;-43
2022/01/03 03:40:18;;;;;;;3.83;1.10;;;;;;;10.04;66.89;95814.31;4843192;29;20060;-43
2022/01/03 03:42:47;;;;;;;4.72;1.20;;;;;;;10.11;66.70;95819.19;4857571;29;20069;-43
2022/01/03 03:45:14;;;;;;;4.03;1.30;;;;;;;10.02;67.21;95803.06;4842465;29;20527;-45
2022/01/03 03:47:41;;;;;;;7.53;1.20;;;;;;;9.94;67.43;95817.44;4830178;29;20261;-42
2022/01/03 03:50:10;;;;;;;5.68;1.58;;;;;;;10.03;67.10;95818.94;4824067;29;20081;-42
2022/01/03 03:52:37;;;;;;;3.88;1.10;;;;;;;10.05;66.98;95824.03;4816936;29;20103;-44
2022/01/03 03:55:07;;;;;;;5.70;1.27;;;;;;;10.07;66.85;95817.19;4823973;29;20046;-42
2022/01/03 03:57:35;;;;;;;6.47;1.30;;;;;;;10.05;66.93;95824.03;4823804;29;20211;-45
2022/01/03 04:00:06;;;;;;;5.15;1.17;;;;;;;9.96;67.22;95815.22;4824027;29;20066;-41
2022/01/03 04:02:39;;;;;;;3.67;1.30;;;;;;;10.06;67.00;95826.41;4824479;29;20126;-41
2022/01/03 04:05:09;;;;;;;3.92;1.48;;;;;;;10.01;67.34;95823.91;4823712;29;20046;-40
2022/01/03 04:07:37;;;;;;;5.60;1.35;;;;;;;10.02;66.89;95814.66;4823609;29;20521;-44
2022/01/03 04:10:07;;;;;;;3.67;1.10;;;;;;;10.04;66.94;95817.84;4824058;29;20115;-39
2022/01/03 04:12:35;;;;;;;4.90;1.10;;;;;;;10.04;67.06;95817.84;4823316;29;20042;-41
2022/01/03 04:15:04;;;;;;;2.58;1.05;;;;;;;10.07;67.04;95828.00;4823169;29;20405;-41
2022/01/03 04:17:33;;;;;;;5.13;1.20;;;;;;;10.08;66.85;95828.78;4823709;29;20050;-42
2022/01/03 04:20:04;;;;;;;6.13;1.20;;;;;;;10.06;67.04;95826.41;4823642;29;20069;-40
2022/01/03 04:22:31;;;;;;;5.25;1.50;;;;;;;10.04;67.23;95838.66;4823673;29;20073;-39
2022/01/03 04:24:58;;;;;;;3.33;1.27;;;;;;;10.02;67.24;95833.59;4824454;29;20058;-39
2022/01/03 04:27:25;;;;;;;5.68;1.00;;;;;;;9.88;68.00;95837.66;4823645;29;20456;-38
2022/01/03 04:29:53;;;;;;;3.03;1.15;;;;;;;9.89;68.04;95842.75;4823629;29;20062;-40
2022/01/03 04:32:23;;;;;;;6.03;1.60;;;;;;;9.89;67.90;95825.75;4835220;29;20056;-39
2022/01/03 04:34:49;;;;;;;8.80;2.13;;;;;;;9.98;67.49;95827.28;4838835;29;20077;-40
2022/01/03 04:37:18;;;;;;;5.70;1.10;;;;;;;9.89;67.82;95821.13;4823370;29;20074;-39
2022/01/03 04:39:45;;;;;;;3.80;1.02;;;;;;;9.96;67.54;95828.72;4823713;29;20074;-41
2022/01/03 04:42:12;;;;;;;3.80;1.15;;;;;;;10.05;67.19;95822.13;4822552;29;20429;-40
2022/01/03 04:44:39;;;;;;;4.22;1.20;;;;;;;10.01;67.38;95834.72;4823260;29;20121;-40
2022/01/03 04:47:07;;;;;;;4.07;1.10;;;;;;;10.00;67.53;95835.81;4823270;29;20142;-42
2022/01/03 04:49:34;;;;;;;5.82;1.42;;;;;;;9.93;67.70;95835.56;4823646;29;20053;-39
2022/01/03 04:52:02;;;;;;;3.42;1.23;;;;;;;9.93;67.88;95835.56;4829500;29;20054;-39
2022/01/03 04:54:31;;;;;;;3.22;1.35;;;;;;;9.95;67.30;95827.94;4823046;29;20057;-45
2022/01/03 04:56:59;;;;;;;2.30;1.00;;;;;;;9.96;67.69;95834.91;4824426;29;20485;-40
2022/01/03 04:59:29;;;;;;;4.68;1.10;;;;;;;9.96;67.29;95836.81;4823228;29;20099;-40
2022/01/03 05:01:56;;;;;;;5.90;1.30;;;;;;;10.03;67.16;95832.47;4824145;29;20059;-39
2022/01/03 05:04:24;;;;;;;6.32;1.10;;;;;;;9.94;67.53;95850.66;4822563;29;20047;-40
2022/01/03 05:06:51;;;;;;;4.95;1.30;;;;;;;9.88;67.79;95834.97;4839275;29;20523;-43
2022/01/03 05:09:18;;;;;;;3.35;1.02;;;;;;;9.93;67.31;95821.28;4825310;29;20065;-43
2022/01/03 05:11:45;;;;;;;3.83;1.20;;;;;;;9.96;67.40;95832.22;4841071;29;20462;-43
2022/01/03 05:14:12;;;;;;;4.50;0.93;;;;;;;9.97;67.29;95855.41;4841002;29;20066;-41
2022/01/03 05:16:39;;;;;;;7.78;1.65;;;;;;;9.96;67.33;95843.00;4841562;29;20110;-40
2022/01/03 05:19:06;;;;;;;6.18;1.50;;;;;;;9.85;67.80;95828.34;4850755;29;20095;-43
2022/01/03 05:21:33;;;;;;;6.50;1.27;;;;;;;9.88;67.67;95841.19;4824110;29;20078;-45
2022/01/03 05:24:00;;;;;;;7.75;1.63;;;;;;;9.80;67.84;95839.31;4822348;29;20056;-43
2022/01/03 05:26:27;;;;;;;7.30;1.33;;;;;;;9.73;68.12;95850.66;4821996;29;20074;-39
2022/01/03 05:28:56;;;;;;;5.43;1.23;;;;;;;9.80;67.84;95842.81;4822156;29;20080;-40
2022/01/03 05:31:23;;;;;;;4.53;1.33;;;;;;;9.84;67.54;95856.47;4822879;29;20050;-40
2022/01/03 05:33:50;;;;;;;4.47;1.05;;;;;;;9.91;67.35;95861.34;4821881;29;20121;-44
2022/01/03 05:36:17;;;;;;;2.60;1.00;;;;;;;9.87;67.16;95855.00;4837599;29;20101;-40
2022/01/03 05:38:44;;;;;;;5.97;1.67;;;;;;;9.84;67.32;95865.34;4823608;29;20057;-45
2022/01/03 05:41:12;;;;;;;4.50;1.33;;;;;;;9.77;67.45;95861.59;4822486;29;20062;-41
2022/01/03 05:43:40;;;;;;;5.65;1.15;;;;;;;9.90;67.18;95860.53;4822180;29;20137;-43
2022/01/03 05:46:06;;;;;;;4.22;1.60;;;;;;;9.87;67.18;95868.53;4837380;29;20422;-41
2022/01/03 05:48:33;;;;;;;7.88;1.42;;;;;;;9.90;66.88;95865.94;4836605;29;20524;-41
2022/01/03 05:51:00;;;;;;;3.85;1.10;;;;;;;9.78;67.51;95860.47;4823583;29;20503;-44
2022/01/03 05:53:30;;;;;;;2.85;1.17;;;;;;;9.92;66.94;95857.53;4822585;29;20083;-40
2022/01/03 05:55:58;;;;;;;5.32;1.20;;;;;;;9.88;66.99;95870.09;4823740;29;20049;-42
2022/01/03 05:58:26;;;;;;;6.85;1.30;;;;;;;9.87;66.78;95874.72;4821996;29;20047;-41
2022/01/03 06:00:53;;;;;;;4.85;1.15;;;;;;;9.87;66.85;95872.00;4822123;29;20050;-44
2022/01/03 06:03:22;;;;;;;4.32;1.10;;;;;;;9.80;67.04;95879.84;4822822;29;20099;-39
2022/01/03 06:06:16;;;;;;;5.53;1.10;;;;;;;9.64;67.34;95881.56;4823385;29;20457;-42
2022/01/03 06:08:40;;;;;;;6.88;1.48;;;;;;;9.72;66.95;95869.91;4822341;29;20041;-43
2022/01/03 06:11:07;;;;;;;2.35;0.95;;;;;;;9.82;66.46;95875.72;4806988;29;20054;-41
2022/01/03 06:13:34;;;;;;;5.47;1.23;;;;;;;9.67;67.28;95864.69;4823790;29;20054;-41
2022/01/03 06:16:01;;;;;;;4.30;0.88;;;;;;;9.75;66.70;95885.44;4823269;29;20497;-41
2022/01/03 06:18:30;;;;;;;4.90;1.33;;;;;;;9.73;66.89;95879.59;4822571;29;20458;-39
2022/01/03 06:21:02;;;;;;;5.70;1.08;;;;;;;9.72;66.79;95883.41;4806589;29;20099;-40
2022/01/03 06:23:34;;;;;;;4.60;1.30;;;;;;;9.67;67.17;95873.59;4838021;29;20054;-41
2022/01/03 06:26:01;;;;;;;5.05;1.27;;;;;;;9.70;66.93;95864.81;4824173;29;20413;-41
2022/01/03 06:28:36;;;;;;;3.53;1.17;;;;;;;9.72;66.74;95875.31;4837325;29;20107;-44
2022/01/03 06:31:04;;;;;;;5.07;1.58;;;;;;;9.71;66.69;95861.00;4846606;29;20073;-39
2022/01/03 06:33:31;;;;;;;3.22;1.02;;;;;;;9.58;67.54;95868.22;4839685;29;20050;-39
2022/01/03 06:35:58;;;;;;;6.32;1.42;;;;;;;9.66;67.15;95872.00;4839883;29;20048;-43
2022/01/03 06:38:26;;;;;;;8.45;1.30;;;;;;;9.65;67.15;95875.03;4838736;29;20053;-39
2022/01/03 06:40:53;;;;;;;5.10;1.38;;;;;;;9.66;67.11;95880.13;4840061;29;20488;-42
2022/01/03 06:43:24;;;;;;;5.43;1.17;;;;;;;9.65;67.18;95872.31;4839523;29;20050;-42
2022/01/03 06:45:50;;;;;;;3.53;1.10;;;;;;;9.66;67.17;95873.91;4850484;29;20043;-42
2022/01/03 06:48:18;;;;;;;4.82;0.90;;;;;;;9.56;67.55;95859.66;4821873;29;20078;-44
2022/01/03 06:50:45;;;;;;;3.70;1.02;;;;;;;9.60;67.30;95873.31;4806447;29;20054;-45
2022/01/03 06:53:12;;;;;;;5.97;1.17;;;;;;;9.53;67.58;95865.72;4820877;29;20050;-44
2022/01/03 06:55:41;;;;;;;3.83;1.15;;;;;;;9.58;67.51;95870.91;4821524;29;20050;-43
2022/01/03 06:58:08;;;;;;;4.13;1.08;;;;;;;9.47;67.41;95858.94;4821515;29;20476;-42
2022/01/03 07:00:34;;;;;;;2.65;0.95;;;;;;;9.64;67.36;95881.56;4822145;29;20043;-45
2022/01/03 07:03:02;;;;;;;6.35;1.33;;;;;;;9.56;67.55;95869.69;4835879;29;20533;-45
2022/01/03 07:05:29;;;;;;;3.55;1.02;;;;;;;9.45;68.01;95880.06;4822270;29;20234;-45
2022/01/03 07:07:56;;;;;;;5.82;1.10;;;;;;;9.49;67.94;95880.19;4822115;29;20050;-43
2022/01/03 07:10:23;;;;;;;3.92;1.10;;;;;;;9.48;67.86;95884.81;4821943;29;20051;-45
2022/01/03 07:12:51;;;;;;;5.18;1.10;;;;;;;9.37;68.52;95889.00;4835664;29;20050;-46
2022/01/03 07:20:52;;;;;;;5.63;1.17;;;;;;;9.38;68.32;95887.88;4840685;29;20042;-45
2022/01/03 07:23:21;;;;;;;3.42;1.08;;;;;;;9.49;67.68;95894.50;4822067;29;20043;-44
2022/01/03 07:25:52;;;;;;;6.43;1.20;;;;;;;9.45;67.89;95885.44;4822188;29;20058;-44
2022/01/03 07:28:19;;;;;;;4.47;1.20;;;;;;;9.43;67.95;95885.00;4822284;29;20077;-44
2022/01/03 07:30:46;;;;;;;5.50;1.65;;;;;;;9.48;67.79;95892.13;4822691;29;20062;-43
2022/01/03 07:33:13;;;;;;;8.52;1.42;;;;;;;9.43;67.71;95892.31;4821612;29;20110;-43
2022/01/03 07:35:40;;;;;;;6.25;1.30;;;;;;;9.48;67.46;95887.50;4822339;29;20043;-45
2022/01/03 07:38:07;;;;;;;6.03;1.30;;;;;;;9.50;67.14;95879.09;4836165;29;20070;-45
2022/01/03 07:40:35;;;;;;;4.38;1.58;;;;;;;9.47;67.27;95880.53;4821833;29;20046;-43
2022/01/03 07:43:02;;;;;;;4.10;0.95;;;;;;;9.50;67.01;95884.50;4821668;29;20137;-44
2022/01/03 07:45:29;;;;;;;4.28;1.30;;;;;;;9.53;66.94;95895.44;4822243;29;20057;-43
2022/01/03 07:47:56;;;;;;;5.43;0.98;;;;;;;9.56;66.66;95888.59;4821963;29;20148;-45
2022/01/03 07:50:23;;;;;;;3.83;0.98;;;;;;;9.51;66.76;95883.38;4822704;29;20073;-43
2022/01/03 07:52:50;;;;;;;5.68;1.45;;;;;;;9.47;66.83;95879.75;4824567;29;20046;-45
2022/01/03 07:55:19;;;;;;;3.53;0.88;;;;;;;9.46;66.68;95886.28;4825222;29;20564;-43
2022/01/03 07:57:46;;;;;;;7.70;1.38;;;;;;;9.48;66.52;95884.81;4824766;29;20052;-43
2022/01/03 08:00:15;;;;;;;6.38;1.23;;;;;;;9.59;66.32;95879.84;4825446;29;20076;-42
2022/01/03 08:02:43;;;;;;;5.53;1.20;;;;;;;9.55;66.23;95882.41;4823701;29;20058;-43
2022/01/03 08:05:14;;;;;;;4.57;1.10;;;;;;;9.54;66.22;95886.19;4823694;29;20524;-42
2022/01/03 08:07:43;;;;;;;3.20;1.10;;;;;;;9.54;66.18;95870.00;4827380;29;20479;-45
2022/01/03 08:10:11;;;;;;;3.80;0.90;;;;;;;9.62;66.44;95875.66;4843798;29;20050;-43
2022/01/03 08:12:39;;;;;;;5.32;1.30;;;;;;;9.64;65.85;95876.16;4843038;29;20085;-45
2022/01/03 08:15:11;;;;;;;5.38;1.50;;;;;;;9.62;65.89;95884.59;4843392;29;20046;-46
2022/01/03 08:17:38;;;;;;;4.35;0.95;;;;;;;9.60;65.96;95887.59;4845515;24;20069;-42
2022/01/03 08:20:06;;;;;;;4.75;1.00;;;;;;;9.70;65.68;95877.53;4843354;29;20423;-41
2022/01/03 08:22:33;;;;;;;4.35;1.10;;;;;;;9.59;65.84;95888.72;4829764;29;20051;-41
2022/01/03 08:25:00;;;;;;;4.35;0.98;;;;;;;9.68;65.58;95890.56;4824415;29;20050;-41
2022/01/03 08:27:26;;;;;;;5.97;1.63;;;;;;;9.55;66.06;95887.81;4824896;29;20129;-42
2022/01/03 08:29:53;;;;;;;4.75;0.90;;;;;;;9.60;65.91;95884.91;4826949;29;20054;-40
2022/01/03 08:32:20;;;;;;;6.82;1.30;;;;;;;9.53;65.57;95881.16;4838883;29;20568;-42
2022/01/03 08:34:48;;;;;;;2.63;0.80;;;;;;;9.73;66.18;95888.47;4845662;29;20046;-42
2022/01/03 08:37:15;;;;;;;4.18;0.98;;;;;;;9.59;65.66;95882.53;4842962;29;20042;-41
2022/01/03 08:39:42;;;;;;;8.98;1.40;;;;;;;9.78;65.31;95892.91;4842061;29;20049;-42
2022/01/03 08:42:09;;;;;;;4.35;1.13;;;;;;;9.72;65.51;95888.81;4829226;29;20050;-41
2022/01/03 08:44:36;;;;;;;4.90;1.20;;;;;;;9.89;64.67;95875.19;4822754;29;20051;-45
2022/01/03 08:47:03;;;;;;;4.63;0.88;;;;;;;9.80;65.06;95872.53;4823312;29;20048;-40
2022/01/03 08:49:30;;;;;;;3.53;1.33;;;;;;;9.75;65.00;95874.63;4824161;29;20046;-42
2022/01/03 08:51:57;;;;;;;6.32;1.27;;;;;;;9.77;65.15;95872.41;4824348;29;20046;-41
2022/01/03 08:54:24;;;;;;;8.82;1.02;;;;;;;9.86;64.63;95875.84;4823638;29;20441;-43
2022/01/03 08:56:51;;;;;;;8.15;1.77;;;;;;;9.88;64.52;95873.63;4824507;29;20085;-42
2022/01/03 08:59:17;;;;;;;3.10;0.90;;;;;;;9.86;64.61;95870.44;4824221;29;20046;-45
2022/01/03 09:01:44;;;;;;;3.97;0.90;;;;;;;10.02;64.16;95860.63;4839078;29;20054;-42
2022/01/03 09:04:11;;;;;;;3.53;1.20;;;;;;;10.04;63.91;95877.31;4841578;29;20050;-41
2022/01/03 09:06:38;;;;;;;5.10;1.10;;;;;;;9.98;63.52;95870.53;4842216;29;20488;-44
2022/01/03 09:09:06;;;;;;;4.25;1.00;;;;;;;10.01;63.51;95867.16;4834303;29;20062;-41
2022/01/03 09:11:33;;;;;;;6.15;1.10;;;;;;;10.09;63.60;95862.00;4824250;29;20050;-47
2022/01/03 09:14:00;;;;;;;5.28;1.10;;;;;;;10.08;63.18;95869.34;4822620;29;20046;-45
2022/01/03 09:16:26;;;;;;;7.22;1.40;;;;;;;10.06;63.26;95869.66;4823988;29;20390;-41
2022/01/03 09:18:53;;;;;;;7.35;1.20;;;;;;;10.13;62.87;95871.03;4823778;29;20133;-45
2022/01/03 09:21:20;;;;;;;4.00;1.00;;;;;;;10.17;62.73;95866.53;4823555;29;20499;-42
2022/01/03 09:23:52;;;;;;;4.25;1.10;;;;;;;10.10;63.06;95872.47;4823200;29;20062;-44
2022/01/03 09:29:05;;;;;;;2.72;0.80;;;;;;;10.22;62.26;95879.88;4824020;29;20058;-45
2022/01/03 09:31:35;;;;;;;2.97;1.02;;;;;;;10.23;62.31;95862.50;4841607;29;20065;-43
2022/01/03 09:34:05;;;;;;;4.32;1.00;;;;;;;10.23;62.18;95863.31;4841234;29;20505;-43
2022/01/03 09:36:33;;;;;;;7.20;1.05;;;;;;;10.31;62.23;95871.72;4841573;29;20050;-46
2022/01/03 09:39:04;;;;;;;5.90;1.30;;;;;;;10.26;61.43;95856.47;4839816;29;20208;-43
2022/01/03 09:41:32;;;;;;;5.35;1.20;;;;;;;10.36;61.32;95868.81;4823493;29;20194;-42
2022/01/03 09:44:11;;;;;;;6.93;1.38;;;;;;;10.39;61.05;95870.84;4822931;29;20133;-45
2022/01/03 09:46:41;;;;;;;5.82;1.00;;;;;;;10.37;61.17;95868.47;4823085;29;20480;-43
2022/01/03 09:49:12;;;;;;;6.88;1.13;;;;;;;10.41;61.26;95863.97;4822004;29;20054;-43
2022/01/03 09:51:44;;;;;;;5.82;1.08;;;;;;;10.48;61.10;95868.84;4827091;29;20129;-43
2022/01/03 09:54:16;;;;;;;3.10;1.02;;;;;;;10.32;61.49;95859.78;4840509;29;20049;-41
2022/01/03 09:56:43;;;;;;;5.90;1.15;;;;;;;10.48;61.09;95866.94;4841347;29;20552;-43
2022/01/03 09:59:11;;;;;;;9.02;1.30;;;;;;;10.47;60.89;95854.53;4855294;29;20134;-45
2022/01/03 10:01:41;;;;;;;5.03;0.98;;;;;;;10.51;60.96;95858.16;4835764;29;20042;-47
2022/01/03 10:04:11;;;;;;;5.50;1.00;;;;;;;10.47;61.22;95851.06;4822564;29;20053;-46
2022/01/03 10:06:39;;;;;;;5.03;0.70;;;;;;;10.55;61.30;95854.78;4822883;29;20401;-47
2022/01/03 10:09:06;;;;;;;6.72;1.10;;;;;;;10.56;61.49;95850.94;4822910;29;20057;-42
2022/01/03 10:11:33;;;;;;;6.30;1.20;;;;;;;10.63;61.34;95843.09;4822771;29;20398;-43
2022/01/03 10:14:00;;;;;;;3.08;0.90;;;;;;;10.50;61.54;95843.06;4821800;29;20046;-44
2022/01/03 10:16:28;;;;;;;4.63;0.85;;;;;;;10.61;61.46;95850.75;4823162;29;20046;-46
2022/01/03 10:19:12;;;;;;;3.30;1.23;;;;;;;10.59;61.54;95842.16;4822949;29;20413;-41
2022/01/03 10:21:40;;;;;;;4.97;1.13;;;;;;;10.63;61.13;95848.50;4822317;29;20043;-44
2022/01/03 10:24:09;;;;;;;3.35;1.05;;;;;;;10.70;61.11;95848.75;4822502;29;20046;-44
2022/01/03 10:26:38;;;;;;;3.85;0.98;;;;;;;10.57;61.06;95844.44;4822583;29;20473;-41
2022/01/03 10:29:11;;;;;;;5.28;0.90;;;;;;;10.71;60.51;95844.91;4822954;29;20853;-45
2022/01/03 10:31:40;;;;;;;4.80;1.00;;;;;;;10.71;60.35;95837.56;4823127;29;20058;-42
2022/01/03 10:34:10;;;;;;;7.35;2.17;;;;;;;10.72;60.23;95839.19;4822646;29;20046;-42
2022/01/03 10:36:38;;;;;;;5.10;1.23;;;;;;;10.70;59.84;95825.19;4821950;29;20051;-44
2022/01/03 10:39:12;;;;;;;2.72;0.80;;;;;;;10.77;59.72;95840.88;4822703;29;20058;-42
2022/01/03 10:41:39;;;;;;;5.22;0.85;;;;;;;10.67;59.68;95838.59;4823171;29;20062;-42
2022/01/03 10:44:08;;;;;;;2.47;0.93;;;;;;;10.79;59.45;95835.09;4822405;29;20050;-41
2022/01/03 10:46:37;;;;;;;4.10;0.80;;;;;;;10.73;59.39;95839.97;4822776;29;20050;-42
2022/01/03 10:49:13;;;;;;;5.10;0.90;;;;;;;10.76;59.71;95831.97;4823120;29;20054;-47
2022/01/03 10:51:40;;;;;;;4.22;0.95;;;;;;;10.67;59.92;95838.59;4823010;29;20073;-41
2022/01/03 10:54:10;;;;;;;2.53;0.85;;;;;;;10.75;60.04;95840.41;4821894;29;20490;-41
2022/01/03 10:56:39;;;;;;;4.95;1.00;;;;;;;10.86;59.67;95836.16;4822398;29;20058;-42
2022/01/03 10:59:11;;;;;;;4.93;1.05;;;;;;;10.72;60.16;95839.19;4822772;29;20057;-43
2022/01/03 11:01:40;;;;;;;3.00;0.90;;;;;;;10.65;60.55;95835.41;4822404;29;20050;-44
2022/01/03 11:04:08;;;;;;;4.32;1.10;;;;;;;10.82;60.24;95835.25;4822045;29;20414;-45
2022/01/03 11:11:50;;;;;;;6.45;1.15;;;;;;;10.69;61.03;95820.09;4822444;29;20402;-44
2022/01/03 11:14:39;;;;;;;4.75;0.80;;;;;;;10.77;60.69;95821.91;4821800;29;20058;-44
2022/01/03 11:17:26;;;;;;;3.10;0.80;;;;;;;10.80;60.89;95805.00;4822129;29;20046;-42
2022/01/03 11:19:58;;;;;;;5.90;0.95;;;;;;;10.86;60.57;95800.19;4820893;29;20050;-43
2022/01/03 11:22:46;;;;;;;2.75;0.88;;;;;;;10.84;60.61;95805.13;4822178;29;20504;-40
2022/01/03 11:25:13;;;;;;;1.85;0.70;;;;;;;10.75;60.70;95786.28;4824019;29;20412;-45
2022/01/03 11:27:41;;;;;;;4.68;1.00;;;;;;;10.92;60.41;95790.69;4825577;29;20050;-44
2022/01/03 11:30:11;;;;;;;5.63;0.98;;;;;;;10.76;60.61;95788.66;4825374;29;20046;-42
2022/01/03 11:32:48;;;;;;;3.60;1.00;;;;;;;10.88;60.58;95792.50;4825082;29;20057;-43
2022/01/03 11:35:16;;;;;;;2.53;0.70;;;;;;;10.78;60.30;95780.19;4825304;29;20066;-43
2022/01/03 11:37:47;;;;;;;5.20;1.02;;;;;;;10.86;60.30;95773.13;4825273;29;20482;-42
2022/01/03 11:40:15;;;;;;;6.15;1.38;;;;;;;10.80;60.49;95785.28;4825286;29;20054;-43
2022/01/03 11:42:44;;;;;;;1.83;0.65;;;;;;;10.83;60.52;95773.78;4825028;29;20479;-41
2022/01/03 11:45:12;;;;;;;4.45;1.55;;;;;;;10.75;60.79;95760.00;4824769;29;20058;-42
2022/01/03 11:47:39;;;;;;;3.95;0.90;;;;;;;10.82;60.26;95780.31;4824518;29;20508;-43
2022/01/03 11:50:07;;;;;;;3.55;0.60;;;;;;;10.70;60.79;95770.28;4824909;29;20061;-43
2022/01/03 11:52:44;;;;;;;7.35;3.08;;;;;;;10.74;60.70;95761.13;4824969;29;20100;-44
2022/01/03 11:55:14;;;;;;;5.18;0.90;;;;;;;10.75;60.50;95765.41;4824767;29;20060;-46
2022/01/03 12:03:39;;;;;;;2.70;0.77;;;;;;;10.85;60.70;95752.56;4823967;29;20129;-40
2022/01/03 12:06:09;;;;;;;3.67;0.77;;;;;;;10.85;60.74;95747.94;4824760;29;20066;-44